sensor_id;sensor_type;location;lat;lon;timestamp;pressure;altitude;pressure_sealevel;temperature;humidity
47260;BME280;32999;52.412;4.890;2022-10-26T00:03:56;101415.78;;;13.23;100.00
47260;BME280;32999;52.412;4.890;2022-10-26T00:08:58;101381.72;;;13.23;100.00
47260;BME280;32999;52.412;4.890;2022-10-26T00:14:00;101413.44;;;13.56;100.00
47260;BME280;32999;52.412;4.890;2022-10-26T00:19:04;101415.31;;;13.55;100.00
47260;BME280;32999;52.412;4.890;2022-10-26T00:24:05;101360.97;;;13.32;100.00
47260;BME280;32999;52.412;4.890;2022-10-26T00:29:09;101373.34;;;13.54;100.00
47260;BME280;32999;52.412;4.890;2022-10-26T00:34:13;101403.97;;;13.81;100.00
47260;BME280;32999;52.412;4.890;2022-10-26T00:39:15;101384.81;;;13.91;100.00
47260;BME280;32999;52.412;4.890;2022-10-26T00:50:06;101264.31;;;13.11;100.00
47260;BME280;32999;52.412;4.890;2022-10-26T00:55:09;101374.22;;;13.83;100.00
47260;BME280;32999;52.412;4.890;2022-10-26T01:00:11;101381.34;;;13.97;100.00
47260;BME280;32999;52.412;4.890;2022-10-26T01:05:14;101390.56;;;14.09;100.00
47260;BME280;32999;52.412;4.890;2022-10-26T01:10:17;101359.16;;;14.16;100.00
47260;BME280;32999;52.412;4.890;2022-10-26T01:15:21;101346.16;;;14.20;100.00
47260;BME280;32999;52.412;4.890;2022-10-26T01:20:42;101343.41;;;14.13;100.00
47260;BME280;32999;52.412;4.890;2022-10-26T01:26:17;101334.38;;;13.93;100.00
47260;BME280;32999;52.412;4.890;2022-10-26T01:31:35;101283.13;;;13.60;100.00
47260;BME280;32999;52.412;4.890;2022-10-26T01:36:41;101327.34;;;13.64;100.00
47260;BME280;32999;52.412;4.890;2022-10-26T01:41:47;101328.31;;;13.78;100.00
47260;BME280;32999;52.412;4.890;2022-10-26T01:46:53;101321.19;;;13.98;100.00
47260;BME280;32999;52.412;4.890;2022-10-26T01:51:56;101265.56;;;13.64;100.00
47260;BME280;32999;52.412;4.890;2022-10-26T01:57:01;101349.78;;;14.06;100.00
47260;BME280;32999;52.412;4.890;2022-10-26T02:07:40;101304.50;;;14.03;100.00
47260;BME280;32999;52.412;4.890;2022-10-26T02:12:51;101295.41;;;14.04;100.00
47260;BME280;32999;52.412;4.890;2022-10-26T02:18:03;101239.59;;;13.71;100.00
47260;BME280;32999;52.412;4.890;2022-10-26T02:23:10;101289.38;;;14.02;100.00
47260;BME280;32999;52.412;4.890;2022-10-26T02:28:17;101229.72;;;13.78;100.00
47260;BME280;32999;52.412;4.890;2022-10-26T02:33:23;101122.47;;;13.08;100.00
47260;BME280;32999;52.412;4.890;2022-10-26T02:38:29;101287.03;;;13.92;100.00
47260;BME280;32999;52.412;4.890;2022-10-26T02:43:36;101292.41;;;13.92;100.00
47260;BME280;32999;52.412;4.890;2022-10-26T02:48:43;101287.31;;;13.69;100.00
47260;BME280;32999;52.412;4.890;2022-10-26T02:53:50;101260.16;;;13.85;100.00
47260;BME280;32999;52.412;4.890;2022-10-26T02:58:58;101122.69;;;13.13;100.00
47260;BME280;32999;52.412;4.890;2022-10-26T03:04:03;101210.53;;;13.81;100.00
47260;BME280;32999;52.412;4.890;2022-10-26T03:09:04;101279.66;;;14.01;100.00
47260;BME280;32999;52.412;4.890;2022-10-26T03:14:06;101292.50;;;14.05;100.00
47260;BME280;32999;52.412;4.890;2022-10-26T03:19:09;101211.38;;;13.82;100.00
47260;BME280;32999;52.412;4.890;2022-10-26T03:24:12;101260.28;;;14.12;100.00
47260;BME280;32999;52.412;4.890;2022-10-26T03:29:14;101268.97;;;14.14;100.00
47260;BME280;32999;52.412;4.890;2022-10-26T03:34:23;101138.81;;;13.41;100.00
47260;BME280;32999;52.412;4.890;2022-10-26T03:39:25;101175.28;;;13.63;100.00
47260;BME280;32999;52.412;4.890;2022-10-26T03:44:27;101252.66;;;14.15;100.00
47260;BME280;32999;52.412;4.890;2022-10-26T03:49:30;101158.78;;;13.66;100.00
47260;BME280;32999;52.412;4.890;2022-10-26T03:54:32;101176.09;;;13.63;100.00
47260;BME280;32999;52.412;4.890;2022-10-26T03:59:34;101171.19;;;13.67;100.00
47260;BME280;32999;52.412;4.890;2022-10-26T04:04:37;101240.06;;;14.22;100.00
47260;BME280;32999;52.412;4.890;2022-10-26T04:09:39;101217.56;;;14.30;100.00
47260;BME280;32999;52.412;4.890;2022-10-26T04:14:41;101225.75;;;14.15;100.00
47260;BME280;32999;52.412;4.890;2022-10-26T04:19:44;101134.78;;;13.65;100.00
47260;BME280;32999;52.412;4.890;2022-10-26T04:24:46;101170.06;;;13.96;100.00
47260;BME280;32999;52.412;4.890;2022-10-26T04:29:49;101199.13;;;14.20;100.00
47260;BME280;32999;52.412;4.890;2022-10-26T04:34:53;101221.09;;;14.30;100.00
47260;BME280;32999;52.412;4.890;2022-10-26T04:39:54;101107.63;;;13.81;100.00
47260;BME280;32999;52.412;4.890;2022-10-26T04:44:56;101232.34;;;14.47;100.00
47260;BME280;32999;52.412;4.890;2022-10-26T04:49:59;101217.25;;;14.53;100.00
47260;BME280;32999;52.412;4.890;2022-10-26T04:55:03;101227.38;;;14.51;100.00
47260;BME280;32999;52.412;4.890;2022-10-26T05:00:06;101147.00;;;14.08;100.00
47260;BME280;32999;52.412;4.890;2022-10-26T05:05:09;101212.91;;;14.65;100.00
47260;BME280;32999;52.412;4.890;2022-10-26T05:10:11;101115.91;;;13.92;100.00
47260;BME280;32999;52.412;4.890;2022-10-26T05:15:13;101190.53;;;14.45;100.00
47260;BME280;32999;52.412;4.890;2022-10-26T05:20:16;101183.94;;;14.60;100.00
47260;BME280;32999;52.412;4.890;2022-10-26T05:25:18;101141.00;;;14.19;100.00
47260;BME280;32999;52.412;4.890;2022-10-26T05:30:19;101193.84;;;14.47;100.00
47260;BME280;32999;52.412;4.890;2022-10-26T05:35:22;101128.81;;;14.10;100.00
47260;BME280;32999;52.412;4.890;2022-10-26T05:40:25;101191.41;;;14.65;100.00
47260;BME280;32999;52.412;4.890;2022-10-26T05:45:27;101187.88;;;14.51;100.00
47260;BME280;32999;52.412;4.890;2022-10-26T05:50:30;101202.19;;;14.72;100.00
47260;BME280;32999;52.412;4.890;2022-10-26T05:55:32;101207.97;;;14.69;100.00
47260;BME280;32999;52.412;4.890;2022-10-26T06:00:34;101200.72;;;14.69;100.00
47260;BME280;32999;52.412;4.890;2022-10-26T06:05:43;101202.38;;;14.63;100.00
47260;BME280;32999;52.412;4.890;2022-10-26T06:10:46;101215.84;;;14.77;100.00
47260;BME280;32999;52.412;4.890;2022-10-26T06:16:05;101164.06;;;14.48;100.00
47260;BME280;32999;52.412;4.890;2022-10-26T06:21:21;101209.25;;;14.79;100.00
47260;BME280;32999;52.412;4.890;2022-10-26T06:26:33;101217.31;;;14.79;100.00
47260;BME280;32999;52.412;4.890;2022-10-26T06:31:37;101173.63;;;14.77;100.00
47260;BME280;32999;52.412;4.890;2022-10-26T06:36:40;101189.38;;;15.00;100.00
47260;BME280;32999;52.412;4.890;2022-10-26T06:41:42;101207.59;;;15.05;100.00
47260;BME280;32999;52.412;4.890;2022-10-26T06:46:47;101207.19;;;15.21;100.00
47260;BME280;32999;52.412;4.890;2022-10-26T06:51:55;101209.47;;;15.24;100.00
47260;BME280;32999;52.412;4.890;2022-10-26T06:56:59;101202.81;;;15.40;100.00
47260;BME280;32999;52.412;4.890;2022-10-26T07:02:01;101053.56;;;14.30;100.00
47260;BME280;32999;52.412;4.890;2022-10-26T07:07:05;101070.09;;;14.20;100.00
47260;BME280;32999;52.412;4.890;2022-10-26T07:12:07;101219.59;;;15.02;100.00
47260;BME280;32999;52.412;4.890;2022-10-26T07:17:10;101220.84;;;15.26;100.00
47260;BME280;32999;52.412;4.890;2022-10-26T07:22:18;101209.66;;;15.16;100.00
47260;BME280;32999;52.412;4.890;2022-10-26T07:27:23;101241.16;;;15.02;100.00
47260;BME280;32999;52.412;4.890;2022-10-26T07:32:25;101221.69;;;15.20;100.00
47260;BME280;32999;52.412;4.890;2022-10-26T07:37:28;101193.28;;;15.11;100.00
47260;BME280;32999;52.412;4.890;2022-10-26T07:42:30;101236.16;;;15.39;100.00
47260;BME280;32999;52.412;4.890;2022-10-26T07:47:32;101247.59;;;15.34;100.00
47260;BME280;32999;52.412;4.890;2022-10-26T07:52:36;101223.75;;;15.31;100.00
47260;BME280;32999;52.412;4.890;2022-10-26T07:57:38;101261.84;;;15.41;100.00
47260;BME280;32999;52.412;4.890;2022-10-26T08:02:40;101172.59;;;14.78;100.00
47260;BME280;32999;52.412;4.890;2022-10-26T08:07:43;101300.84;;;15.78;100.00
47260;BME280;32999;52.412;4.890;2022-10-26T08:12:45;101283.81;;;15.84;100.00
47260;BME280;32999;52.412;4.890;2022-10-26T08:17:47;101277.31;;;16.18;100.00
47260;BME280;32999;52.412;4.890;2022-10-26T08:22:52;101298.56;;;16.46;100.00
47260;BME280;32999;52.412;4.890;2022-10-26T08:27:59;101322.28;;;17.52;100.00
47260;BME280;32999;52.412;4.890;2022-10-26T08:33:03;101313.41;;;17.70;100.00
47260;BME280;32999;52.412;4.890;2022-10-26T08:38:06;101301.84;;;18.24;100.00
47260;BME280;32999;52.412;4.890;2022-10-26T08:43:15;101291.50;;;18.69;100.00
47260;BME280;32999;52.412;4.890;2022-10-26T08:48:30;101286.41;;;18.91;100.00
47260;BME280;32999;52.412;4.890;2022-10-26T08:53:37;101286.03;;;19.17;100.00
47260;BME280;32999;52.412;4.890;2022-10-26T08:58:50;101274.91;;;19.07;100.00
47260;BME280;32999;52.412;4.890;2022-10-26T09:03:54;101238.53;;;19.15;100.00
47260;BME280;32999;52.412;4.890;2022-10-26T09:09:03;101272.63;;;20.27;100.00
47260;BME280;32999;52.412;4.890;2022-10-26T09:14:13;101287.50;;;20.25;100.00
47260;BME280;32999;52.412;4.890;2022-10-26T09:19:41;101293.50;;;21.57;100.00
47260;BME280;32999;52.412;4.890;2022-10-26T09:24:55;101255.09;;;22.09;100.00
47260;BME280;32999;52.412;4.890;2022-10-26T09:29:59;101233.16;;;21.77;100.00
47260;BME280;32999;52.412;4.890;2022-10-26T09:35:08;101172.50;;;21.82;100.00
47260;BME280;32999;52.412;4.890;2022-10-26T09:40:19;101262.44;;;23.06;100.00
47260;BME280;32999;52.412;4.890;2022-10-26T09:45:27;101311.50;;;22.79;100.00
47260;BME280;32999;52.412;4.890;2022-10-26T09:50:33;101287.84;;;22.36;100.00
47260;BME280;32999;52.412;4.890;2022-10-26T09:55:41;101368.22;;;22.38;100.00
47260;BME280;32999;52.412;4.890;2022-10-26T10:00:45;101337.19;;;22.83;100.00
47260;BME280;32999;52.412;4.890;2022-10-26T10:05:47;101255.94;;;21.93;100.00
47260;BME280;32999;52.412;4.890;2022-10-26T10:10:58;101276.50;;;22.44;100.00
47260;BME280;32999;52.412;4.890;2022-10-26T10:16:06;101319.88;;;22.94;100.00
47260;BME280;32999;52.412;4.890;2022-10-26T10:21:10;101345.94;;;23.12;100.00
47260;BME280;32999;52.412;4.890;2022-10-26T10:26:29;101350.88;;;22.88;100.00
47260;BME280;32999;52.412;4.890;2022-10-26T10:31:31;101401.97;;;22.98;100.00
47260;BME280;32999;52.412;4.890;2022-10-26T10:36:34;101404.69;;;22.37;100.00
47260;BME280;32999;52.412;4.890;2022-10-26T10:41:43;101400.50;;;21.80;100.00
47260;BME280;32999;52.412;4.890;2022-10-26T10:46:45;101410.94;;;21.54;100.00
47260;BME280;32999;52.412;4.890;2022-10-26T10:51:48;101420.00;;;21.43;100.00
47260;BME280;32999;52.412;4.890;2022-10-26T10:56:52;101428.56;;;21.35;100.00
47260;BME280;32999;52.412;4.890;2022-10-26T11:02:10;101409.69;;;21.17;100.00
47260;BME280;32999;52.412;4.890;2022-10-26T11:07:17;101441.28;;;21.46;100.00
47260;BME280;32999;52.412;4.890;2022-10-26T11:12:26;101457.97;;;21.38;100.00
47260;BME280;32999;52.412;4.890;2022-10-26T11:17:30;101451.44;;;21.22;100.00
47260;BME280;32999;52.412;4.890;2022-10-26T11:22:35;101448.78;;;20.87;100.00
47260;BME280;32999;52.412;4.890;2022-10-26T11:27:44;101414.22;;;20.71;100.00
47260;BME280;32999;52.412;4.890;2022-10-26T11:32:50;101375.75;;;20.51;100.00
47260;BME280;32999;52.412;4.890;2022-10-26T11:38:00;101420.19;;;20.85;100.00
47260;BME280;32999;52.412;4.890;2022-10-26T11:43:17;101465.28;;;21.21;100.00
47260;BME280;32999;52.412;4.890;2022-10-26T11:48:24;101475.25;;;21.32;100.00
47260;BME280;32999;52.412;4.890;2022-10-26T11:53:35;101472.94;;;21.12;100.00
47260;BME280;32999;52.412;4.890;2022-10-26T11:58:42;101412.72;;;20.40;100.00
47260;BME280;32999;52.412;4.890;2022-10-26T12:03:47;101399.56;;;20.60;100.00
47260;BME280;32999;52.412;4.890;2022-10-26T12:08:54;101476.41;;;21.48;100.00
47260;BME280;32999;52.412;4.890;2022-10-26T12:14:04;101408.28;;;21.14;100.00
47260;BME280;32999;52.412;4.890;2022-10-26T12:19:14;101476.16;;;21.78;100.00
47260;BME280;32999;52.412;4.890;2022-10-26T12:24:27;101507.44;;;21.63;100.00
47260;BME280;32999;52.412;4.890;2022-10-26T12:29:47;101492.41;;;21.61;100.00
47260;BME280;32999;52.412;4.890;2022-10-26T12:35:00;101496.50;;;21.75;100.00
47260;BME280;32999;52.412;4.890;2022-10-26T12:40:40;101489.19;;;21.47;100.00
47260;BME280;32999;52.412;4.890;2022-10-26T12:45:45;101490.91;;;21.53;100.00
47260;BME280;32999;52.412;4.890;2022-10-26T12:50:47;101453.75;;;21.30;100.00
47260;BME280;32999;52.412;4.890;2022-10-26T12:56:03;101494.78;;;21.29;100.00
47260;BME280;32999;52.412;4.890;2022-10-26T13:01:24;101454.00;;;20.77;100.00
47260;BME280;32999;52.412;4.890;2022-10-26T13:06:39;101392.97;;;20.33;100.00
47260;BME280;32999;52.412;4.890;2022-10-26T13:11:47;101530.25;;;21.11;100.00
47260;BME280;32999;52.412;4.890;2022-10-26T13:16:54;101521.91;;;21.00;100.00
47260;BME280;32999;52.412;4.890;2022-10-26T13:22:02;101524.22;;;21.09;100.00
47260;BME280;32999;52.412;4.890;2022-10-26T13:27:40;101515.59;;;21.12;100.00
47260;BME280;32999;52.412;4.890;2022-10-26T13:32:49;101512.41;;;21.15;100.00
47260;BME280;32999;52.412;4.890;2022-10-26T13:37:54;101534.28;;;21.20;100.00
47260;BME280;32999;52.412;4.890;2022-10-26T13:43:01;101541.91;;;21.46;100.00
47260;BME280;32999;52.412;4.890;2022-10-26T13:48:10;101546.78;;;21.72;100.00
47260;BME280;32999;52.412;4.890;2022-10-26T13:53:17;101552.56;;;21.48;100.00
47260;BME280;32999;52.412;4.890;2022-10-26T13:58:31;101581.34;;;21.60;100.00
47260;BME280;32999;52.412;4.890;2022-10-26T14:03:39;101570.47;;;21.60;100.00
47260;BME280;32999;52.412;4.890;2022-10-26T14:08:42;101470.16;;;20.84;100.00
47260;BME280;32999;52.412;4.890;2022-10-26T14:13:48;101604.78;;;21.61;100.00
47260;BME280;32999;52.412;4.890;2022-10-26T14:18:56;101586.84;;;21.49;100.00
47260;BME280;32999;52.412;4.890;2022-10-26T14:24:17;101588.56;;;21.26;100.00
47260;BME280;32999;52.412;4.890;2022-10-26T14:29:23;101593.63;;;21.23;100.00
47260;BME280;32999;52.412;4.890;2022-10-26T14:34:33;101585.34;;;21.18;100.00
47260;BME280;32999;52.412;4.890;2022-10-26T14:39:40;101555.34;;;20.66;100.00
47260;BME280;32999;52.412;4.890;2022-10-26T14:44:43;101518.13;;;20.55;100.00
47260;BME280;32999;52.412;4.890;2022-10-26T14:49:46;101623.38;;;21.18;100.00
47260;BME280;32999;52.412;4.890;2022-10-26T14:54:56;101615.13;;;20.89;100.00
47260;BME280;32999;52.412;4.890;2022-10-26T14:59:59;101655.28;;;20.87;100.00
47260;BME280;32999;52.412;4.890;2022-10-26T15:05:17;101619.81;;;20.59;100.00
47260;BME280;32999;52.412;4.890;2022-10-26T15:10:44;101540.94;;;20.12;100.00
47260;BME280;32999;52.412;4.890;2022-10-26T15:15:47;101648.09;;;20.93;100.00
47260;BME280;32999;52.412;4.890;2022-10-26T15:20:51;101649.13;;;20.80;100.00
47260;BME280;32999;52.412;4.890;2022-10-26T15:25:57;101663.63;;;20.51;100.00
47260;BME280;32999;52.412;4.890;2022-10-26T15:31:01;101590.47;;;19.96;100.00
47260;BME280;32999;52.412;4.890;2022-10-26T15:36:15;101661.81;;;20.45;100.00
47260;BME280;32999;52.412;4.890;2022-10-26T15:41:18;101660.91;;;20.51;100.00
47260;BME280;32999;52.412;4.890;2022-10-26T15:46:23;101675.78;;;20.60;100.00
47260;BME280;32999;52.412;4.890;2022-10-26T15:51:26;101675.84;;;20.42;100.00
47260;BME280;32999;52.412;4.890;2022-10-26T15:56:29;101678.38;;;20.55;100.00
47260;BME280;32999;52.412;4.890;2022-10-26T16:01:31;101677.66;;;20.48;100.00
47260;BME280;32999;52.412;4.890;2022-10-26T16:06:37;101633.00;;;20.14;100.00
47260;BME280;32999;52.412;4.890;2022-10-26T16:11:46;101713.34;;;20.63;100.00
47260;BME280;32999;52.412;4.890;2022-10-26T16:16:47;101698.56;;;20.47;100.00
47260;BME280;32999;52.412;4.890;2022-10-26T16:21:51;101603.44;;;19.39;100.00
47260;BME280;32999;52.412;4.890;2022-10-26T16:27:20;101711.66;;;20.02;100.00
47260;BME280;32999;52.412;4.890;2022-10-26T16:32:28;101705.78;;;19.68;100.00
47260;BME280;32999;52.412;4.890;2022-10-26T16:37:50;101601.34;;;18.55;100.00
47260;BME280;32999;52.412;4.890;2022-10-26T16:43:08;101723.09;;;19.24;100.00
47260;BME280;32999;52.412;4.890;2022-10-26T16:48:22;101732.94;;;19.19;100.00
47260;BME280;32999;52.412;4.890;2022-10-26T16:53:45;101699.19;;;18.90;100.00
47260;BME280;32999;52.412;4.890;2022-10-26T16:58:47;101748.13;;;18.95;100.00
47260;BME280;32999;52.412;4.890;2022-10-26T17:03:50;101738.16;;;18.89;100.00
47260;BME280;32999;52.412;4.890;2022-10-26T17:08:55;101749.22;;;18.87;100.00
47260;BME280;32999;52.412;4.890;2022-10-26T17:13:59;101754.16;;;18.65;100.00
47260;BME280;32999;52.412;4.890;2022-10-26T17:19:01;101760.56;;;18.71;100.00
47260;BME280;32999;52.412;4.890;2022-10-26T17:24:04;101776.22;;;18.69;100.00
47260;BME280;32999;52.412;4.890;2022-10-26T17:29:06;101773.06;;;18.72;100.00
47260;BME280;32999;52.412;4.890;2022-10-26T17:34:08;101794.56;;;18.67;100.00
47260;BME280;32999;52.412;4.890;2022-10-26T17:39:11;101733.19;;;18.03;100.00
47260;BME280;32999;52.412;4.890;2022-10-26T17:44:13;101750.00;;;18.56;100.00
47260;BME280;32999;52.412;4.890;2022-10-26T17:49:15;101803.06;;;18.77;100.00
47260;BME280;32999;52.412;4.890;2022-10-26T17:54:18;101809.09;;;18.73;100.00
47260;BME280;32999;52.412;4.890;2022-10-26T17:59:20;101817.03;;;18.74;100.00
47260;BME280;32999;52.412;4.890;2022-10-26T18:04:21;101821.00;;;18.65;100.00
47260;BME280;32999;52.412;4.890;2022-10-26T18:09:30;101824.34;;;18.67;100.00
47260;BME280;32999;52.412;4.890;2022-10-26T18:14:36;101839.53;;;18.68;100.00
47260;BME280;32999;52.412;4.890;2022-10-26T18:20:15;101781.84;;;18.10;100.00
47260;BME280;32999;52.412;4.890;2022-10-26T18:25:32;101865.00;;;18.54;100.00
47260;BME280;32999;52.412;4.890;2022-10-26T18:30:35;101809.28;;;18.26;100.00
47260;BME280;32999;52.412;4.890;2022-10-26T18:35:37;101821.38;;;18.17;100.00
47260;BME280;32999;52.412;4.890;2022-10-26T18:40:40;101865.59;;;18.56;100.00
47260;BME280;32999;52.412;4.890;2022-10-26T18:45:41;101835.09;;;18.22;100.00
47260;BME280;32999;52.412;4.890;2022-10-26T18:50:43;101888.69;;;18.58;100.00
47260;BME280;32999;52.412;4.890;2022-10-26T18:55:46;101899.59;;;18.39;100.00
47260;BME280;32999;52.412;4.890;2022-10-26T19:00:48;101822.28;;;17.85;100.00
47260;BME280;32999;52.412;4.890;2022-10-26T19:05:51;101900.06;;;18.22;100.00
47260;BME280;32999;52.412;4.890;2022-10-26T19:10:59;101815.19;;;17.57;100.00
47260;BME280;32999;52.412;4.890;2022-10-26T19:16:02;101921.72;;;17.96;100.00
47260;BME280;32999;52.412;4.890;2022-10-26T19:21:05;101922.94;;;18.07;100.00
47260;BME280;32999;52.412;4.890;2022-10-26T19:26:10;101914.22;;;17.98;100.00
47260;BME280;32999;52.412;4.890;2022-10-26T19:31:13;101933.38;;;18.03;100.00
47260;BME280;32999;52.412;4.890;2022-10-26T19:36:15;101932.94;;;17.93;100.00
47260;BME280;32999;52.412;4.890;2022-10-26T19:41:22;101906.53;;;17.75;100.00
47260;BME280;32999;52.412;4.890;2022-10-26T19:46:27;101829.13;;;17.21;100.00
47260;BME280;32999;52.412;4.890;2022-10-26T19:51:37;101968.34;;;17.98;100.00
47260;BME280;32999;52.412;4.890;2022-10-26T19:56:40;101919.22;;;17.75;100.00
47260;BME280;32999;52.412;4.890;2022-10-26T20:01:42;101964.81;;;18.04;100.00
47260;BME280;32999;52.412;4.890;2022-10-26T20:06:43;101992.47;;;17.99;100.00
47260;BME280;32999;52.412;4.890;2022-10-26T20:11:48;101897.53;;;17.42;100.00
47260;BME280;32999;52.412;4.890;2022-10-26T20:16:50;101982.88;;;17.90;100.00
47260;BME280;32999;52.412;4.890;2022-10-26T20:21:51;101865.47;;;17.06;100.00
47260;BME280;32999;52.412;4.890;2022-10-26T20:26:55;101968.72;;;17.82;100.00
47260;BME280;32999;52.412;4.890;2022-10-26T20:31:57;101887.13;;;17.32;100.00
47260;BME280;32999;52.412;4.890;2022-10-26T20:37:01;101988.72;;;17.94;100.00
47260;BME280;32999;52.412;4.890;2022-10-26T20:42:04;101974.56;;;17.79;100.00
47260;BME280;32999;52.412;4.890;2022-10-26T20:47:07;102010.13;;;17.89;100.00
47260;BME280;32999;52.412;4.890;2022-10-26T20:52:12;101928.69;;;17.31;100.00
47260;BME280;32999;52.412;4.890;2022-10-26T20:57:18;101983.63;;;17.58;100.00
47260;BME280;32999;52.412;4.890;2022-10-26T21:02:21;102028.22;;;17.82;100.00
47260;BME280;32999;52.412;4.890;2022-10-26T21:07:22;102035.28;;;17.76;100.00
47260;BME280;32999;52.412;4.890;2022-10-26T21:12:26;102033.63;;;17.82;100.00
47260;BME280;32999;52.412;4.890;2022-10-26T21:17:27;102035.91;;;17.72;100.00
47260;BME280;32999;52.412;4.890;2022-10-26T21:22:29;102034.66;;;17.67;100.00
47260;BME280;32999;52.412;4.890;2022-10-26T21:27:32;102040.69;;;17.70;100.00
47260;BME280;32999;52.412;4.890;2022-10-26T21:32:34;102050.25;;;17.72;100.00
47260;BME280;32999;52.412;4.890;2022-10-26T21:37:36;101998.53;;;17.34;100.00
47260;BME280;32999;52.412;4.890;2022-10-26T21:42:47;102048.94;;;17.61;100.00
47260;BME280;32999;52.412;4.890;2022-10-26T21:47:49;102045.41;;;17.54;100.00
47260;BME280;32999;52.412;4.890;2022-10-26T21:52:52;102046.19;;;17.48;100.00
47260;BME280;32999;52.412;4.890;2022-10-26T21:57:56;102063.47;;;17.47;100.00
47260;BME280;32999;52.412;4.890;2022-10-26T22:02:58;102054.13;;;17.50;100.00
47260;BME280;32999;52.412;4.890;2022-10-26T22:08:00;102061.78;;;17.46;100.00
47260;BME280;32999;52.412;4.890;2022-10-26T22:13:03;102054.72;;;17.45;100.00
47260;BME280;32999;52.412;4.890;2022-10-26T22:18:05;102070.53;;;17.48;100.00
47260;BME280;32999;52.412;4.890;2022-10-26T22:23:07;102012.81;;;17.15;100.00
47260;BME280;32999;52.412;4.890;2022-10-26T22:28:11;101992.19;;;17.00;100.00
47260;BME280;32999;52.412;4.890;2022-10-26T22:33:14;102009.44;;;17.06;100.00
47260;BME280;32999;52.412;4.890;2022-10-26T22:38:19;102075.13;;;17.54;100.00
47260;BME280;32999;52.412;4.890;2022-10-26T22:43:24;102050.88;;;17.67;100.00
47260;BME280;32999;52.412;4.890;2022-10-26T22:48:28;102056.09;;;17.76;100.00
47260;BME280;32999;52.412;4.890;2022-10-26T22:53:31;102068.38;;;17.85;100.00
47260;BME280;32999;52.412;4.890;2022-10-26T22:58:35;102054.44;;;17.75;100.00
47260;BME280;32999;52.412;4.890;2022-10-26T23:03:37;102042.50;;;17.56;100.00
47260;BME280;32999;52.412;4.890;2022-10-26T23:08:39;102049.13;;;17.60;100.00
47260;BME280;32999;52.412;4.890;2022-10-26T23:13:43;102062.53;;;17.75;100.00
47260;BME280;32999;52.412;4.890;2022-10-26T23:18:45;102021.69;;;17.56;100.00
47260;BME280;32999;52.412;4.890;2022-10-26T23:23:47;101957.97;;;17.21;100.00
47260;BME280;32999;52.412;4.890;2022-10-26T23:28:50;101969.19;;;17.18;100.00
47260;BME280;32999;52.412;4.890;2022-10-26T23:33:54;101983.97;;;17.35;100.00
47260;BME280;32999;52.412;4.890;2022-10-26T23:38:57;102091.06;;;17.90;100.00
47260;BME280;32999;52.412;4.890;2022-10-26T23:44:00;102081.25;;;17.70;100.00
47260;BME280;32999;52.412;4.890;2022-10-26T23:49:02;101999.25;;;17.02;100.00
47260;BME280;32999;52.412;4.890;2022-10-26T23:54:03;102092.31;;;17.40;100.00
47260;BME280;32999;52.412;4.890;2022-10-26T23:59:07;102037.59;;;16.90;100.00
